sensor_id;sensor_type;location;lat;lon;timestamp;temperature;humidity
64888;DHT22;51386;53.082;8.816;2023-11-19T00:00:28;8.60;99.60
64888;DHT22;51386;53.082;8.816;2023-11-19T00:02:57;8.60;99.60
64888;DHT22;51386;53.082;8.816;2023-11-19T00:05:25;8.70;99.60
64888;DHT22;51386;53.082;8.816;2023-11-19T00:07:55;8.60;99.60
64888;DHT22;51386;53.082;8.816;2023-11-19T00:10:23;8.70;99.60
64888;DHT22;51386;53.082;8.816;2023-11-19T00:12:53;8.70;99.60
64888;DHT22;51386;53.082;8.816;2023-11-19T00:15:21;8.70;99.50
64888;DHT22;51386;53.082;8.816;2023-11-19T00:17:52;8.70;99.50
64888;DHT22;51386;53.082;8.816;2023-11-19T00:20:22;8.70;99.60
64888;DHT22;51386;53.082;8.816;2023-11-19T00:22:50;8.70;99.70
64888;DHT22;51386;53.082;8.816;2023-11-19T00:25:21;8.70;99.60
64888;DHT22;51386;53.082;8.816;2023-11-19T00:27:50;8.70;99.70
64888;DHT22;51386;53.082;8.816;2023-11-19T00:30:19;8.80;99.80
64888;DHT22;51386;53.082;8.816;2023-11-19T00:32:48;8.80;99.80
64888;DHT22;51386;53.082;8.816;2023-11-19T00:35:17;8.80;99.80
64888;DHT22;51386;53.082;8.816;2023-11-19T00:37:45;8.80;99.80
64888;DHT22;51386;53.082;8.816;2023-11-19T00:40:16;8.80;99.80
64888;DHT22;51386;53.082;8.816;2023-11-19T00:42:46;8.80;99.80
64888;DHT22;51386;53.082;8.816;2023-11-19T00:45:15;8.80;99.70
64888;DHT22;51386;53.082;8.816;2023-11-19T00:47:44;8.90;99.80
64888;DHT22;51386;53.082;8.816;2023-11-19T00:50:12;8.90;99.80
64888;DHT22;51386;53.082;8.816;2023-11-19T00:52:41;8.90;99.80
64888;DHT22;51386;53.082;8.816;2023-11-19T00:55:09;8.90;99.90
64888;DHT22;51386;53.082;8.816;2023-11-19T00:57:39;8.90;99.90
64888;DHT22;51386;53.082;8.816;2023-11-19T01:00:08;8.90;99.90
64888;DHT22;51386;53.082;8.816;2023-11-19T01:02:47;8.90;99.90
64888;DHT22;51386;53.082;8.816;2023-11-19T01:05:19;8.90;99.90
64888;DHT22;51386;53.082;8.816;2023-11-19T01:07:52;9.00;99.90
64888;DHT22;51386;53.082;8.816;2023-11-19T01:10:21;9.00;99.90
64888;DHT22;51386;53.082;8.816;2023-11-19T01:12:50;9.00;99.90
64888;DHT22;51386;53.082;8.816;2023-11-19T01:15:19;9.00;99.90
64888;DHT22;51386;53.082;8.816;2023-11-19T01:17:47;9.10;99.90
64888;DHT22;51386;53.082;8.816;2023-11-19T01:20:20;9.10;99.90
64888;DHT22;51386;53.082;8.816;2023-11-19T01:22:48;9.10;99.90
64888;DHT22;51386;53.082;8.816;2023-11-19T01:25:17;9.10;99.90
64888;DHT22;51386;53.082;8.816;2023-11-19T01:27:46;9.20;99.90
64888;DHT22;51386;53.082;8.816;2023-11-19T01:30:15;9.20;99.90
64888;DHT22;51386;53.082;8.816;2023-11-19T01:32:43;9.20;99.90
64888;DHT22;51386;53.082;8.816;2023-11-19T01:35:12;9.20;99.90
64888;DHT22;51386;53.082;8.816;2023-11-19T01:37:40;9.20;99.90
64888;DHT22;51386;53.082;8.816;2023-11-19T01:40:09;9.20;99.90
64888;DHT22;51386;53.082;8.816;2023-11-19T01:42:40;9.20;99.90
64888;DHT22;51386;53.082;8.816;2023-11-19T01:45:09;9.20;99.90
64888;DHT22;51386;53.082;8.816;2023-11-19T01:47:38;9.20;99.90
64888;DHT22;51386;53.082;8.816;2023-11-19T01:50:07;9.30;99.90
64888;DHT22;51386;53.082;8.816;2023-11-19T01:52:37;9.30;99.90
64888;DHT22;51386;53.082;8.816;2023-11-19T01:55:08;9.30;99.90
64888;DHT22;51386;53.082;8.816;2023-11-19T01:57:38;9.30;99.90
64888;DHT22;51386;53.082;8.816;2023-11-19T02:00:09;9.40;99.90
64888;DHT22;51386;53.082;8.816;2023-11-19T02:02:40;9.40;99.90
64888;DHT22;51386;53.082;8.816;2023-11-19T02:05:11;9.50;99.90
64888;DHT22;51386;53.082;8.816;2023-11-19T02:07:40;9.50;99.90
64888;DHT22;51386;53.082;8.816;2023-11-19T02:10:09;9.60;99.90
64888;DHT22;51386;53.082;8.816;2023-11-19T02:12:42;9.60;99.90
64888;DHT22;51386;53.082;8.816;2023-11-19T02:15:11;9.70;99.90
64888;DHT22;51386;53.082;8.816;2023-11-19T02:17:39;9.70;99.90
64888;DHT22;51386;53.082;8.816;2023-11-19T02:20:08;9.80;99.90
64888;DHT22;51386;53.082;8.816;2023-11-19T02:22:39;9.90;99.90
64888;DHT22;51386;53.082;8.816;2023-11-19T02:25:15;10.00;99.90
64888;DHT22;51386;53.082;8.816;2023-11-19T02:27:57;10.00;99.90
64888;DHT22;51386;53.082;8.816;2023-11-19T02:30:28;10.10;99.90
64888;DHT22;51386;53.082;8.816;2023-11-19T02:32:57;10.20;99.90
64888;DHT22;51386;53.082;8.816;2023-11-19T02:35:33;10.30;99.90
64888;DHT22;51386;53.082;8.816;2023-11-19T02:38:01;10.40;99.90
64888;DHT22;51386;53.082;8.816;2023-11-19T02:40:34;10.40;99.90
64888;DHT22;51386;53.082;8.816;2023-11-19T02:43:03;10.50;99.90
64888;DHT22;51386;53.082;8.816;2023-11-19T02:45:33;10.60;99.90
64888;DHT22;51386;53.082;8.816;2023-11-19T02:48:01;10.70;99.90
64888;DHT22;51386;53.082;8.816;2023-11-19T02:50:29;10.70;99.90
64888;DHT22;51386;53.082;8.816;2023-11-19T02:52:59;10.80;99.90
64888;DHT22;51386;53.082;8.816;2023-11-19T02:55:27;10.90;99.90
64888;DHT22;51386;53.082;8.816;2023-11-19T02:57:58;11.00;99.90
64888;DHT22;51386;53.082;8.816;2023-11-19T03:00:28;11.10;99.90
64888;DHT22;51386;53.082;8.816;2023-11-19T03:03:03;11.10;99.90
64888;DHT22;51386;53.082;8.816;2023-11-19T03:05:46;11.20;99.90
64888;DHT22;51386;53.082;8.816;2023-11-19T03:08:15;11.20;99.90
64888;DHT22;51386;53.082;8.816;2023-11-19T03:10:47;11.30;99.90
64888;DHT22;51386;53.082;8.816;2023-11-19T03:13:16;11.40;99.90
64888;DHT22;51386;53.082;8.816;2023-11-19T03:15:45;11.40;99.90
64888;DHT22;51386;53.082;8.816;2023-11-19T03:18:14;11.50;99.90
64888;DHT22;51386;53.082;8.816;2023-11-19T03:20:42;11.50;99.90
64888;DHT22;51386;53.082;8.816;2023-11-19T03:23:11;11.60;99.90
64888;DHT22;51386;53.082;8.816;2023-11-19T03:25:40;11.60;99.90
64888;DHT22;51386;53.082;8.816;2023-11-19T03:28:08;11.70;99.90
64888;DHT22;51386;53.082;8.816;2023-11-19T03:30:37;11.70;99.90
64888;DHT22;51386;53.082;8.816;2023-11-19T03:33:05;11.70;99.90
64888;DHT22;51386;53.082;8.816;2023-11-19T03:35:33;11.80;99.90
64888;DHT22;51386;53.082;8.816;2023-11-19T03:38:02;11.80;99.90
64888;DHT22;51386;53.082;8.816;2023-11-19T03:40:30;11.80;99.90
64888;DHT22;51386;53.082;8.816;2023-11-19T03:42:58;11.90;99.90
64888;DHT22;51386;53.082;8.816;2023-11-19T03:45:27;11.90;99.90
64888;DHT22;51386;53.082;8.816;2023-11-19T03:47:55;11.90;99.90
64888;DHT22;51386;53.082;8.816;2023-11-19T03:50:24;12.00;99.90
64888;DHT22;51386;53.082;8.816;2023-11-19T03:52:52;12.00;99.90
64888;DHT22;51386;53.082;8.816;2023-11-19T03:55:20;12.00;99.90
64888;DHT22;51386;53.082;8.816;2023-11-19T03:57:49;12.00;99.90
64888;DHT22;51386;53.082;8.816;2023-11-19T04:00:17;12.10;99.90
64888;DHT22;51386;53.082;8.816;2023-11-19T04:02:48;12.10;99.90
64888;DHT22;51386;53.082;8.816;2023-11-19T04:05:17;12.10;99.90
64888;DHT22;51386;53.082;8.816;2023-11-19T04:07:46;12.10;99.90
64888;DHT22;51386;53.082;8.816;2023-11-19T04:10:15;12.10;99.90
64888;DHT22;51386;53.082;8.816;2023-11-19T04:12:44;12.20;99.90
64888;DHT22;51386;53.082;8.816;2023-11-19T04:15:14;12.20;99.90
64888;DHT22;51386;53.082;8.816;2023-11-19T04:17:43;12.30;99.90
64888;DHT22;51386;53.082;8.816;2023-11-19T04:20:12;12.30;99.90
64888;DHT22;51386;53.082;8.816;2023-11-19T04:22:41;12.30;99.90
64888;DHT22;51386;53.082;8.816;2023-11-19T04:25:10;12.30;99.90
64888;DHT22;51386;53.082;8.816;2023-11-19T04:27:39;12.30;99.90
64888;DHT22;51386;53.082;8.816;2023-11-19T04:30:07;12.40;99.90
64888;DHT22;51386;53.082;8.816;2023-11-19T04:32:38;12.40;99.90
64888;DHT22;51386;53.082;8.816;2023-11-19T04:35:07;12.40;99.90
64888;DHT22;51386;53.082;8.816;2023-11-19T04:37:37;12.50;99.90
64888;DHT22;51386;53.082;8.816;2023-11-19T04:40:06;12.50;99.90
64888;DHT22;51386;53.082;8.816;2023-11-19T04:42:35;12.50;99.90
64888;DHT22;51386;53.082;8.816;2023-11-19T04:45:03;12.50;99.90
64888;DHT22;51386;53.082;8.816;2023-11-19T04:47:34;12.50;99.90
64888;DHT22;51386;53.082;8.816;2023-11-19T04:50:03;12.50;99.90
64888;DHT22;51386;53.082;8.816;2023-11-19T04:52:32;12.60;99.90
64888;DHT22;51386;53.082;8.816;2023-11-19T04:55:00;12.60;99.90
64888;DHT22;51386;53.082;8.816;2023-11-19T04:57:29;12.60;99.90
64888;DHT22;51386;53.082;8.816;2023-11-19T04:59:57;12.60;99.90
64888;DHT22;51386;53.082;8.816;2023-11-19T05:02:25;12.70;99.90
64888;DHT22;51386;53.082;8.816;2023-11-19T05:04:54;12.70;99.90
64888;DHT22;51386;53.082;8.816;2023-11-19T05:07:22;12.70;99.90
64888;DHT22;51386;53.082;8.816;2023-11-19T05:09:51;12.70;99.90
64888;DHT22;51386;53.082;8.816;2023-11-19T05:12:19;12.70;99.90
64888;DHT22;51386;53.082;8.816;2023-11-19T05:14:48;12.70;99.90
64888;DHT22;51386;53.082;8.816;2023-11-19T05:17:18;12.70;99.90
64888;DHT22;51386;53.082;8.816;2023-11-19T05:19:47;12.70;99.90
64888;DHT22;51386;53.082;8.816;2023-11-19T05:22:17;12.80;99.90
64888;DHT22;51386;53.082;8.816;2023-11-19T05:24:45;12.80;99.90
64888;DHT22;51386;53.082;8.816;2023-11-19T05:27:14;12.80;99.90
64888;DHT22;51386;53.082;8.816;2023-11-19T05:29:43;12.80;99.90
64888;DHT22;51386;53.082;8.816;2023-11-19T05:32:11;12.80;99.90
64888;DHT22;51386;53.082;8.816;2023-11-19T05:34:40;12.80;99.90
64888;DHT22;51386;53.082;8.816;2023-11-19T05:37:11;12.90;99.90
64888;DHT22;51386;53.082;8.816;2023-11-19T05:39:39;12.90;99.90
64888;DHT22;51386;53.082;8.816;2023-11-19T05:42:07;12.90;99.90
64888;DHT22;51386;53.082;8.816;2023-11-19T05:44:37;12.90;99.90
64888;DHT22;51386;53.082;8.816;2023-11-19T05:47:07;13.00;99.90
64888;DHT22;51386;53.082;8.816;2023-11-19T05:49:36;13.00;99.90
64888;DHT22;51386;53.082;8.816;2023-11-19T05:52:04;13.00;99.90
64888;DHT22;51386;53.082;8.816;2023-11-19T05:54:35;13.00;99.90
64888;DHT22;51386;53.082;8.816;2023-11-19T05:57:06;13.00;99.90
64888;DHT22;51386;53.082;8.816;2023-11-19T05:59:37;13.10;99.90
64888;DHT22;51386;53.082;8.816;2023-11-19T06:02:06;13.10;99.90
64888;DHT22;51386;53.082;8.816;2023-11-19T06:04:34;13.10;99.90
64888;DHT22;51386;53.082;8.816;2023-11-19T06:07:03;13.10;99.90
64888;DHT22;51386;53.082;8.816;2023-11-19T06:09:33;13.10;99.90
64888;DHT22;51386;53.082;8.816;2023-11-19T06:12:01;13.10;99.90
64888;DHT22;51386;53.082;8.816;2023-11-19T06:14:30;13.20;99.90
64888;DHT22;51386;53.082;8.816;2023-11-19T06:16:58;13.20;99.90
64888;DHT22;51386;53.082;8.816;2023-11-19T06:19:27;13.20;99.90
64888;DHT22;51386;53.082;8.816;2023-11-19T06:21:57;13.20;99.90
64888;DHT22;51386;53.082;8.816;2023-11-19T06:24:25;13.20;99.90
64888;DHT22;51386;53.082;8.816;2023-11-19T06:26:53;13.20;99.90
64888;DHT22;51386;53.082;8.816;2023-11-19T06:29:22;13.20;99.90
64888;DHT22;51386;53.082;8.816;2023-11-19T06:31:50;13.20;99.90
64888;DHT22;51386;53.082;8.816;2023-11-19T06:34:19;13.20;99.90
64888;DHT22;51386;53.082;8.816;2023-11-19T06:36:47;13.20;99.90
64888;DHT22;51386;53.082;8.816;2023-11-19T06:39:16;13.20;99.90
64888;DHT22;51386;53.082;8.816;2023-11-19T06:41:46;13.20;99.90
64888;DHT22;51386;53.082;8.816;2023-11-19T06:44:15;13.30;99.90
64888;DHT22;51386;53.082;8.816;2023-11-19T06:46:43;13.20;99.90
64888;DHT22;51386;53.082;8.816;2023-11-19T06:49:12;13.30;99.90
64888;DHT22;51386;53.082;8.816;2023-11-19T06:51:43;13.30;99.90
64888;DHT22;51386;53.082;8.816;2023-11-19T06:54:12;13.30;99.90
64888;DHT22;51386;53.082;8.816;2023-11-19T06:56:40;13.30;99.90
64888;DHT22;51386;53.082;8.816;2023-11-19T06:59:09;13.30;99.90
64888;DHT22;51386;53.082;8.816;2023-11-19T07:01:37;13.20;99.90
64888;DHT22;51386;53.082;8.816;2023-11-19T07:04:06;13.20;99.90
64888;DHT22;51386;53.082;8.816;2023-11-19T07:06:37;13.20;99.90
64888;DHT22;51386;53.082;8.816;2023-11-19T07:09:09;13.30;99.90
64888;DHT22;51386;53.082;8.816;2023-11-19T07:11:41;13.20;99.90
64888;DHT22;51386;53.082;8.816;2023-11-19T07:14:09;13.20;99.90
64888;DHT22;51386;53.082;8.816;2023-11-19T07:16:39;13.20;99.90
64888;DHT22;51386;53.082;8.816;2023-11-19T07:19:07;13.30;99.90
64888;DHT22;51386;53.082;8.816;2023-11-19T07:21:36;13.30;99.90
64888;DHT22;51386;53.082;8.816;2023-11-19T07:24:11;13.30;99.90
64888;DHT22;51386;53.082;8.816;2023-11-19T07:26:43;13.30;99.90
64888;DHT22;51386;53.082;8.816;2023-11-19T07:29:12;13.30;99.90
64888;DHT22;51386;53.082;8.816;2023-11-19T07:31:55;13.20;99.90
64888;DHT22;51386;53.082;8.816;2023-11-19T07:34:24;13.20;99.90
64888;DHT22;51386;53.082;8.816;2023-11-19T07:36:53;13.20;99.90
64888;DHT22;51386;53.082;8.816;2023-11-19T07:39:21;13.20;99.90
64888;DHT22;51386;53.082;8.816;2023-11-19T07:41:50;13.20;99.90
64888;DHT22;51386;53.082;8.816;2023-11-19T07:44:19;13.20;99.90
64888;DHT22;51386;53.082;8.816;2023-11-19T07:46:49;13.20;99.90
64888;DHT22;51386;53.082;8.816;2023-11-19T07:49:17;13.20;99.90
64888;DHT22;51386;53.082;8.816;2023-11-19T07:51:45;13.10;99.90
64888;DHT22;51386;53.082;8.816;2023-11-19T07:54:14;13.10;99.90
64888;DHT22;51386;53.082;8.816;2023-11-19T07:56:42;13.10;99.90
64888;DHT22;51386;53.082;8.816;2023-11-19T07:59:11;13.10;99.90
64888;DHT22;51386;53.082;8.816;2023-11-19T08:01:39;13.10;99.90
64888;DHT22;51386;53.082;8.816;2023-11-19T08:04:07;13.10;99.90
64888;DHT22;51386;53.082;8.816;2023-11-19T08:06:36;13.10;99.90
64888;DHT22;51386;53.082;8.816;2023-11-19T08:09:05;13.20;99.90
64888;DHT22;51386;53.082;8.816;2023-11-19T08:11:34;13.20;99.90
64888;DHT22;51386;53.082;8.816;2023-11-19T08:14:02;13.20;99.90
64888;DHT22;51386;53.082;8.816;2023-11-19T08:16:31;13.20;99.90
64888;DHT22;51386;53.082;8.816;2023-11-19T08:18:59;13.20;99.70
64888;DHT22;51386;53.082;8.816;2023-11-19T08:21:27;13.20;99.40
64888;DHT22;51386;53.082;8.816;2023-11-19T08:23:56;13.20;99.60
64888;DHT22;51386;53.082;8.816;2023-11-19T08:26:24;13.20;99.70
64888;DHT22;51386;53.082;8.816;2023-11-19T08:28:53;13.20;99.50
64888;DHT22;51386;53.082;8.816;2023-11-19T08:31:21;13.30;99.50
64888;DHT22;51386;53.082;8.816;2023-11-19T08:33:50;13.30;99.60
64888;DHT22;51386;53.082;8.816;2023-11-19T08:36:18;13.30;99.30
64888;DHT22;51386;53.082;8.816;2023-11-19T08:38:47;13.30;99.40
64888;DHT22;51386;53.082;8.816;2023-11-19T08:41:16;13.30;99.40
64888;DHT22;51386;53.082;8.816;2023-11-19T08:43:45;13.30;99.40
64888;DHT22;51386;53.082;8.816;2023-11-19T08:46:14;13.40;99.40
64888;DHT22;51386;53.082;8.816;2023-11-19T08:48:42;13.40;99.20
64888;DHT22;51386;53.082;8.816;2023-11-19T08:51:11;13.40;99.20
64888;DHT22;51386;53.082;8.816;2023-11-19T08:53:40;13.50;99.10
64888;DHT22;51386;53.082;8.816;2023-11-19T08:56:08;13.50;98.80
64888;DHT22;51386;53.082;8.816;2023-11-19T08:58:37;13.60;98.80
64888;DHT22;51386;53.082;8.816;2023-11-19T09:01:05;13.60;98.70
64888;DHT22;51386;53.082;8.816;2023-11-19T09:03:34;13.60;98.70
64888;DHT22;51386;53.082;8.816;2023-11-19T09:06:02;13.70;98.40
64888;DHT22;51386;53.082;8.816;2023-11-19T09:08:31;13.70;98.70
64888;DHT22;51386;53.082;8.816;2023-11-19T09:10:59;13.80;98.80
64888;DHT22;51386;53.082;8.816;2023-11-19T09:13:28;13.80;98.90
64888;DHT22;51386;53.082;8.816;2023-11-19T09:15:56;13.90;98.70
64888;DHT22;51386;53.082;8.816;2023-11-19T09:18:31;14.00;98.60
64888;DHT22;51386;53.082;8.816;2023-11-19T09:21:00;14.10;98.20
64888;DHT22;51386;53.082;8.816;2023-11-19T09:23:28;14.10;97.80
64888;DHT22;51386;53.082;8.816;2023-11-19T09:26:00;14.10;97.80
64888;DHT22;51386;53.082;8.816;2023-11-19T09:28:29;14.10;97.60
64888;DHT22;51386;53.082;8.816;2023-11-19T09:30:57;14.20;97.90
64888;DHT22;51386;53.082;8.816;2023-11-19T09:33:26;14.20;97.40
64888;DHT22;51386;53.082;8.816;2023-11-19T09:35:55;14.20;97.00
64888;DHT22;51386;53.082;8.816;2023-11-19T09:38:23;14.20;97.10
64888;DHT22;51386;53.082;8.816;2023-11-19T09:40:52;14.10;97.10
64888;DHT22;51386;53.082;8.816;2023-11-19T09:43:20;14.10;96.90
64888;DHT22;51386;53.082;8.816;2023-11-19T09:45:50;14.10;97.20
64888;DHT22;51386;53.082;8.816;2023-11-19T09:48:19;14.10;97.30
64888;DHT22;51386;53.082;8.816;2023-11-19T09:50:48;14.10;97.30
64888;DHT22;51386;53.082;8.816;2023-11-19T09:53:17;14.00;97.40
64888;DHT22;51386;53.082;8.816;2023-11-19T09:55:46;14.00;97.50
64888;DHT22;51386;53.082;8.816;2023-11-19T09:58:14;14.00;97.50
64888;DHT22;51386;53.082;8.816;2023-11-19T10:00:43;13.90;97.70
64888;DHT22;51386;53.082;8.816;2023-11-19T10:03:24;13.90;97.50
64888;DHT22;51386;53.082;8.816;2023-11-19T10:05:55;13.80;97.80
64888;DHT22;51386;53.082;8.816;2023-11-19T10:08:24;13.80;97.80
64888;DHT22;51386;53.082;8.816;2023-11-19T10:10:52;13.80;97.80
64888;DHT22;51386;53.082;8.816;2023-11-19T10:13:26;13.80;97.80
64888;DHT22;51386;53.082;8.816;2023-11-19T10:15:58;13.80;97.80
64888;DHT22;51386;53.082;8.816;2023-11-19T10:18:26;13.80;97.90
64888;DHT22;51386;53.082;8.816;2023-11-19T10:20:55;13.80;97.90
64888;DHT22;51386;53.082;8.816;2023-11-19T10:23:23;13.80;97.90
64888;DHT22;51386;53.082;8.816;2023-11-19T10:25:53;13.70;97.80
64888;DHT22;51386;53.082;8.816;2023-11-19T10:28:21;13.70;97.90
64888;DHT22;51386;53.082;8.816;2023-11-19T10:30:49;13.70;97.90
64888;DHT22;51386;53.082;8.816;2023-11-19T10:33:29;13.70;98.00
64888;DHT22;51386;53.082;8.816;2023-11-19T10:35:58;13.60;98.30
64888;DHT22;51386;53.082;8.816;2023-11-19T10:38:29;13.60;98.10
64888;DHT22;51386;53.082;8.816;2023-11-19T10:40:58;13.60;98.10
64888;DHT22;51386;53.082;8.816;2023-11-19T10:43:27;13.60;98.30
64888;DHT22;51386;53.082;8.816;2023-11-19T10:46:09;13.60;98.50
64888;DHT22;51386;53.082;8.816;2023-11-19T10:48:40;13.60;98.30
64888;DHT22;51386;53.082;8.816;2023-11-19T10:51:08;13.70;98.40
64888;DHT22;51386;53.082;8.816;2023-11-19T10:53:38;13.70;98.50
64888;DHT22;51386;53.082;8.816;2023-11-19T10:56:11;13.70;98.40
64888;DHT22;51386;53.082;8.816;2023-11-19T10:58:44;13.70;98.10
64888;DHT22;51386;53.082;8.816;2023-11-19T11:01:32;13.80;98.20
64888;DHT22;51386;53.082;8.816;2023-11-19T11:04:14;13.80;98.10
64888;DHT22;51386;53.082;8.816;2023-11-19T11:06:43;13.80;98.10
64888;DHT22;51386;53.082;8.816;2023-11-19T11:09:13;13.80;98.10
64888;DHT22;51386;53.082;8.816;2023-11-19T11:11:47;13.90;98.10
64888;DHT22;51386;53.082;8.816;2023-11-19T11:14:16;13.90;98.00
64888;DHT22;51386;53.082;8.816;2023-11-19T11:16:48;14.00;98.00
64888;DHT22;51386;53.082;8.816;2023-11-19T11:19:17;14.00;98.10
64888;DHT22;51386;53.082;8.816;2023-11-19T11:21:51;14.10;97.90
64888;DHT22;51386;53.082;8.816;2023-11-19T11:24:25;14.10;97.90
64888;DHT22;51386;53.082;8.816;2023-11-19T11:30:46;14.20;97.40
64888;DHT22;51386;53.082;8.816;2023-11-19T11:36:58;14.30;97.00
64888;DHT22;51386;53.082;8.816;2023-11-19T11:39:36;14.40;97.00
64888;DHT22;51386;53.082;8.816;2023-11-19T11:50:15;14.50;96.60
64888;DHT22;51386;53.082;8.816;2023-11-19T11:55:28;14.60;96.50
64888;DHT22;51386;53.082;8.816;2023-11-19T11:58:00;14.60;96.50
64888;DHT22;51386;53.082;8.816;2023-11-19T12:03:00;14.60;96.00
64888;DHT22;51386;53.082;8.816;2023-11-19T12:05:35;14.60;96.10
64888;DHT22;51386;53.082;8.816;2023-11-19T12:08:13;14.50;95.80
64888;DHT22;51386;53.082;8.816;2023-11-19T12:10:49;14.50;96.00
64888;DHT22;51386;53.082;8.816;2023-11-19T12:13:20;14.50;95.60
64888;DHT22;51386;53.082;8.816;2023-11-19T12:18:33;14.40;95.90
64888;DHT22;51386;53.082;8.816;2023-11-19T12:21:03;14.40;96.00
64888;DHT22;51386;53.082;8.816;2023-11-19T12:23:33;14.40;96.10
64888;DHT22;51386;53.082;8.816;2023-11-19T12:26:02;14.30;96.20
64888;DHT22;51386;53.082;8.816;2023-11-19T12:28:31;14.30;96.10
64888;DHT22;51386;53.082;8.816;2023-11-19T12:31:09;14.30;96.20
64888;DHT22;51386;53.082;8.816;2023-11-19T12:33:37;14.30;96.00
64888;DHT22;51386;53.082;8.816;2023-11-19T12:36:06;14.30;96.20
64888;DHT22;51386;53.082;8.816;2023-11-19T12:38:35;14.30;96.30
64888;DHT22;51386;53.082;8.816;2023-11-19T12:41:08;14.30;96.30
64888;DHT22;51386;53.082;8.816;2023-11-19T12:43:44;14.20;96.20
64888;DHT22;51386;53.082;8.816;2023-11-19T12:46:23;14.20;96.40
64888;DHT22;51386;53.082;8.816;2023-11-19T12:48:51;14.20;96.30
64888;DHT22;51386;53.082;8.816;2023-11-19T12:51:20;14.20;96.40
64888;DHT22;51386;53.082;8.816;2023-11-19T12:53:50;14.20;96.30
64888;DHT22;51386;53.082;8.816;2023-11-19T12:56:29;14.10;96.30
64888;DHT22;51386;53.082;8.816;2023-11-19T12:59:12;14.00;96.20
64888;DHT22;51386;53.082;8.816;2023-11-19T13:01:55;14.00;96.10
64888;DHT22;51386;53.082;8.816;2023-11-19T13:04:30;13.90;96.10
64888;DHT22;51386;53.082;8.816;2023-11-19T13:06:59;13.80;96.20
64888;DHT22;51386;53.082;8.816;2023-11-19T13:09:32;13.70;96.30
64888;DHT22;51386;53.082;8.816;2023-11-19T13:12:13;13.70;96.40
64888;DHT22;51386;53.082;8.816;2023-11-19T13:14:43;13.60;96.30
64888;DHT22;51386;53.082;8.816;2023-11-19T13:17:14;13.50;96.20
64888;DHT22;51386;53.082;8.816;2023-11-19T13:19:50;13.50;96.00
64888;DHT22;51386;53.082;8.816;2023-11-19T13:22:28;13.40;95.80
64888;DHT22;51386;53.082;8.816;2023-11-19T13:24:57;13.30;95.70
64888;DHT22;51386;53.082;8.816;2023-11-19T13:27:27;13.20;95.40
64888;DHT22;51386;53.082;8.816;2023-11-19T13:29:55;13.10;95.40
64888;DHT22;51386;53.082;8.816;2023-11-19T13:32:23;13.10;95.40
64888;DHT22;51386;53.082;8.816;2023-11-19T13:34:52;13.10;95.60
64888;DHT22;51386;53.082;8.816;2023-11-19T13:37:20;13.00;95.70
64888;DHT22;51386;53.082;8.816;2023-11-19T13:39:49;13.00;95.80
64888;DHT22;51386;53.082;8.816;2023-11-19T13:42:17;13.00;95.90
64888;DHT22;51386;53.082;8.816;2023-11-19T13:44:45;12.90;95.90
64888;DHT22;51386;53.082;8.816;2023-11-19T13:47:14;12.90;96.00
64888;DHT22;51386;53.082;8.816;2023-11-19T13:49:44;12.90;96.20
64888;DHT22;51386;53.082;8.816;2023-11-19T13:52:13;12.90;96.30
64888;DHT22;51386;53.082;8.816;2023-11-19T13:54:41;12.80;96.30
64888;DHT22;51386;53.082;8.816;2023-11-19T13:57:10;12.80;96.50
64888;DHT22;51386;53.082;8.816;2023-11-19T13:59:41;12.80;96.70
64888;DHT22;51386;53.082;8.816;2023-11-19T14:02:09;12.80;96.90
64888;DHT22;51386;53.082;8.816;2023-11-19T14:04:38;12.80;96.90
64888;DHT22;51386;53.082;8.816;2023-11-19T14:07:06;12.80;97.00
64888;DHT22;51386;53.082;8.816;2023-11-19T14:09:35;12.90;97.10
64888;DHT22;51386;53.082;8.816;2023-11-19T14:12:03;13.00;97.30
64888;DHT22;51386;53.082;8.816;2023-11-19T14:14:32;13.00;97.30
64888;DHT22;51386;53.082;8.816;2023-11-19T14:17:04;13.00;97.10
64888;DHT22;51386;53.082;8.816;2023-11-19T14:19:35;13.10;97.30
64888;DHT22;51386;53.082;8.816;2023-11-19T14:22:03;13.10;97.10
64888;DHT22;51386;53.082;8.816;2023-11-19T14:24:32;13.10;97.20
64888;DHT22;51386;53.082;8.816;2023-11-19T14:27:01;13.20;97.30
64888;DHT22;51386;53.082;8.816;2023-11-19T14:29:29;13.20;97.40
64888;DHT22;51386;53.082;8.816;2023-11-19T14:31:58;13.20;97.30
64888;DHT22;51386;53.082;8.816;2023-11-19T14:34:31;13.30;97.10
64888;DHT22;51386;53.082;8.816;2023-11-19T14:37:00;13.30;97.00
64888;DHT22;51386;53.082;8.816;2023-11-19T14:39:28;13.30;96.70
64888;DHT22;51386;53.082;8.816;2023-11-19T14:41:59;13.30;96.90
64888;DHT22;51386;53.082;8.816;2023-11-19T14:44:32;13.30;96.90
64888;DHT22;51386;53.082;8.816;2023-11-19T14:47:00;13.30;96.90
64888;DHT22;51386;53.082;8.816;2023-11-19T14:49:30;13.20;96.70
64888;DHT22;51386;53.082;8.816;2023-11-19T14:51:58;13.20;96.50
64888;DHT22;51386;53.082;8.816;2023-11-19T14:54:29;13.20;96.50
64888;DHT22;51386;53.082;8.816;2023-11-19T14:56:58;13.20;96.30
64888;DHT22;51386;53.082;8.816;2023-11-19T14:59:28;13.10;96.40
64888;DHT22;51386;53.082;8.816;2023-11-19T15:01:56;13.10;96.50
64888;DHT22;51386;53.082;8.816;2023-11-19T15:04:25;13.10;96.20
64888;DHT22;51386;53.082;8.816;2023-11-19T15:06:56;13.10;96.30
64888;DHT22;51386;53.082;8.816;2023-11-19T15:09:26;13.10;96.20
64888;DHT22;51386;53.082;8.816;2023-11-19T15:11:55;13.10;96.40
64888;DHT22;51386;53.082;8.816;2023-11-19T15:14:25;13.10;96.40
64888;DHT22;51386;53.082;8.816;2023-11-19T15:16:54;13.10;96.30
64888;DHT22;51386;53.082;8.816;2023-11-19T15:19:22;13.10;96.40
64888;DHT22;51386;53.082;8.816;2023-11-19T15:21:51;13.10;96.60
64888;DHT22;51386;53.082;8.816;2023-11-19T15:24:19;13.10;96.60
64888;DHT22;51386;53.082;8.816;2023-11-19T15:26:48;13.10;96.40
64888;DHT22;51386;53.082;8.816;2023-11-19T15:29:16;13.10;96.40
64888;DHT22;51386;53.082;8.816;2023-11-19T15:31:45;13.10;96.50
64888;DHT22;51386;53.082;8.816;2023-11-19T15:34:13;13.10;96.40
64888;DHT22;51386;53.082;8.816;2023-11-19T15:36:42;13.10;96.40
64888;DHT22;51386;53.082;8.816;2023-11-19T15:39:10;13.10;96.50
64888;DHT22;51386;53.082;8.816;2023-11-19T15:41:41;13.00;96.50
64888;DHT22;51386;53.082;8.816;2023-11-19T15:44:09;13.00;96.50
64888;DHT22;51386;53.082;8.816;2023-11-19T15:46:40;13.00;96.50
64888;DHT22;51386;53.082;8.816;2023-11-19T15:49:09;12.90;96.50
64888;DHT22;51386;53.082;8.816;2023-11-19T15:51:38;13.00;96.60
64888;DHT22;51386;53.082;8.816;2023-11-19T15:54:07;12.90;96.70
64888;DHT22;51386;53.082;8.816;2023-11-19T15:56:35;12.90;96.80
64888;DHT22;51386;53.082;8.816;2023-11-19T15:59:04;13.00;96.90
64888;DHT22;51386;53.082;8.816;2023-11-19T16:01:32;12.90;96.90
64888;DHT22;51386;53.082;8.816;2023-11-19T16:04:00;13.00;97.10
64888;DHT22;51386;53.082;8.816;2023-11-19T16:06:29;12.90;96.90
64888;DHT22;51386;53.082;8.816;2023-11-19T16:08:57;13.00;97.00
64888;DHT22;51386;53.082;8.816;2023-11-19T16:11:26;12.90;97.00